Главная страница
METAR-TAF:

METAR-TAF

Аэропорты :

Портела

Лиссабон, Португалия

широта: 38-46N, долгота: 009-08W, высота над уровнем моря: 114 м

Текущие метеонаблюдения

Эта сводка был подготовлена 35 минут назад, в 22:30 UTC
Ветер 3 Узел от западно-северо-западный
Температура 11°C
Влажность 87%
Давление 1023 hPa
Видимость 10 км и более
Нет облачности ниже 1500 м, и нет кучево-дождевой облачности

METAR: LPPT 182230Z 29003KT CAVOK 11/09 Q1023

Время: 23:05 (23:05 UTC)

Прогноз

Эта сводка был подготовлена 6 часа и 5 минут назад, в 17:00 UTC
Прогноз действительный с 18-го 18 UTC до 19-го 24 UTC
Ветер 3 Узел переменных направлений
Видимость 10 км и более
Отдельные облака на высоте 2500 фута
изменения
С 19-го 10 UTC до 19-го 12 UTC
Ветер 7 Узел от западный

TAF: LPPT 181700Z 1818/1924 VRB03KT 9999 SCT025 BECMG 1910/1912 28007KT

Метеонаблюдения и прогнозы для более 4000 аэропортов (сводки METAR и TAF).

Имеющиеся станции представлены на карте желтыми и красными точками.

Чтобы увидеть название станции, наведите на нее мышь.

Затем щелкните, чтобы увидеть метеонаблюдения и метеопрогнозы.

Управление картой: чтобы увеличить масштаб, щелкните зеленые кнопки с черным крестиком; чтобы уменьшить масштаб, щелкните зеленую кнопку с тире; для просмотра соседних карт щелкайте зеленые стрелки.


METAR-TAF: